createdAt,value
2023-11-02T00:01:10.336Z,97352.19
2023-11-02T00:03:42.456Z,97344.72
2023-11-02T00:06:30.232Z,97343.37
2023-11-02T00:09:31.757Z,97344.95
2023-11-02T00:12:03.341Z,97341.16
2023-11-02T00:14:53.759Z,97341.66
2023-11-02T00:17:48.336Z,97340.56
2023-11-02T00:20:29.695Z,97334.38
2023-11-02T00:22:57.491Z,97336.76
2023-11-02T00:25:48.536Z,97330.54
2023-11-02T00:28:16.593Z,97332.00
2023-11-02T00:30:46.410Z,97326.26
2023-11-02T00:33:15.139Z,97325.66
2023-11-02T00:35:49.457Z,97321.62
2023-11-02T00:38:26.856Z,97316.84
2023-11-02T00:40:56.898Z,97315.33
2023-11-02T00:43:25.529Z,97308.28
2023-11-02T00:45:53.885Z,97303.89
2023-11-02T00:48:29.461Z,97304.72
2023-11-02T00:51:21.234Z,97306.34
2023-11-02T00:53:59.192Z,97304.99
2023-11-02T00:56:32.419Z,97296.17
2023-11-02T00:59:02.432Z,97302.95
2023-11-02T01:01:30.195Z,97292.86
2023-11-02T01:04:03.374Z,97295.41
2023-11-02T01:06:34.279Z,97297.11
2023-11-02T01:09:06.632Z,97303.41
2023-11-02T01:11:37.598Z,97305.19
2023-11-02T01:14:13.786Z,97301.23
2023-11-02T01:16:42.962Z,97308.31
2023-11-02T01:19:31.239Z,97309.78
2023-11-02T01:21:59.742Z,97309.84
2023-11-02T01:24:32.356Z,97305.34
2023-11-02T01:27:01.558Z,97296.00
2023-11-02T01:29:30.742Z,97300.88
2023-11-02T01:32:01.259Z,97298.73
2023-11-02T01:34:30.311Z,97299.05
2023-11-02T01:36:58.354Z,97295.92
2023-11-02T01:39:49.815Z,97292.72
2023-11-02T01:42:24.323Z,97290.94
2023-11-02T01:45:12.274Z,97290.98
2023-11-02T01:48:02.047Z,97286.70
2023-11-02T01:50:48.335Z,97287.56
2023-11-02T01:53:54.703Z,97288.05
2023-11-02T01:56:55.136Z,97283.06
2023-11-02T01:59:40.235Z,97282.36
2023-11-02T02:02:30.832Z,97277.85
2023-11-02T02:05:05.263Z,97271.95
2023-11-02T02:07:44.598Z,97266.09
2023-11-02T02:10:17.498Z,97258.36
2023-11-02T02:13:00.474Z,97260.98
2023-11-02T02:15:46.418Z,97257.88
2023-11-02T02:18:40.390Z,97252.37
2023-11-02T02:21:16.925Z,97243.69
2023-11-02T02:24:08.245Z,97242.21
2023-11-02T02:27:00.307Z,97237.80
2023-11-02T02:29:51.009Z,97229.95
2023-11-02T02:33:00.877Z,97231.86
2023-11-02T02:35:34.743Z,97236.45
2023-11-02T02:38:11.775Z,97245.51
2023-11-02T02:40:50.841Z,97236.22
2023-11-02T02:43:20.549Z,97235.98
2023-11-02T02:45:50.361Z,97238.91
2023-11-02T02:48:19.460Z,97241.60
2023-11-02T02:50:51.187Z,97245.27
2023-11-02T02:53:20.526Z,97250.95
2023-11-02T02:55:51.489Z,97250.37
2023-11-02T02:58:22.812Z,97248.92
2023-11-02T03:00:51.286Z,97254.06
2023-11-02T03:03:24.234Z,97249.83
2023-11-02T03:05:54.859Z,97255.62
2023-11-02T03:08:24.767Z,97254.39
2023-11-02T03:10:53.437Z,97252.06
2023-11-02T03:13:22.818Z,97241.90
2023-11-02T03:15:53.040Z,97238.47
2023-11-02T03:18:27.295Z,97231.50
2023-11-02T03:20:55.789Z,97235.53
2023-11-02T03:23:37.852Z,97227.47
2023-11-02T03:26:31.352Z,97231.50
2023-11-02T03:29:20.078Z,97225.88
2023-11-02T03:32:26.821Z,97224.03
2023-11-02T03:35:17.536Z,97214.34
2023-11-02T03:38:12.361Z,97210.97
2023-11-02T03:41:04.992Z,97212.15
2023-11-02T03:43:40.888Z,97209.60
2023-11-02T03:46:13.948Z,97209.67
2023-11-02T03:48:48.713Z,97208.44
2023-11-02T03:51:30.596Z,97201.42
2023-11-02T03:54:20.622Z,97200.97
2023-11-02T03:57:20.189Z,97201.34
2023-11-02T04:00:10.164Z,97192.59
2023-11-02T04:03:04.215Z,97186.91
2023-11-02T04:05:39.240Z,97190.88
2023-11-02T04:08:19.575Z,97188.69
2023-11-02T04:11:16.178Z,97196.44
2023-11-02T04:14:05.158Z,97194.86
2023-11-02T04:16:32.935Z,97192.22
2023-11-02T04:19:02.728Z,97182.33
2023-11-02T04:21:30.721Z,97180.23
2023-11-02T04:23:58.518Z,97175.41
2023-11-02T04:26:29.579Z,97170.16
2023-11-02T04:28:57.605Z,97169.42
2023-11-02T04:31:25.478Z,97176.56
2023-11-02T04:33:53.726Z,97168.07
2023-11-02T04:36:21.524Z,97166.80
2023-11-02T04:38:51.100Z,97168.20
2023-11-02T04:41:21.066Z,97163.93
2023-11-02T04:43:48.980Z,97151.74
2023-11-02T04:46:16.836Z,97148.27
2023-11-02T04:48:44.588Z,97134.34
2023-11-02T04:51:12.428Z,97131.64
2023-11-02T04:53:39.988Z,97130.30
2023-11-02T04:56:08.450Z,97128.45
2023-11-02T04:58:36.459Z,97128.69
2023-11-02T05:01:05.017Z,97127.05
2023-11-02T05:03:32.831Z,97129.42
2023-11-02T05:06:00.399Z,97136.39
2023-11-02T05:08:28.039Z,97126.73
2023-11-02T05:10:55.963Z,97127.95
2023-11-02T05:13:23.552Z,97126.23
2023-11-02T05:15:56.245Z,97127.70
2023-11-02T05:18:20.794Z,97136.99
2023-11-02T05:20:48.599Z,97139.62
2023-11-02T05:23:16.204Z,97148.13
2023-11-02T05:25:45.197Z,97149.56
2023-11-02T05:28:12.907Z,97147.80
2023-11-02T05:30:41.653Z,97151.69
2023-11-02T05:33:09.575Z,97148.80
2023-11-02T05:35:37.341Z,97151.44
2023-11-02T05:38:05.134Z,97151.53
2023-11-02T05:40:32.984Z,97146.55
2023-11-02T05:43:00.802Z,97141.91
2023-11-02T05:45:28.587Z,97143.75
2023-11-02T05:47:56.301Z,97142.40
2023-11-02T05:50:26.450Z,97138.91
2023-11-02T05:52:57.528Z,97145.16
2023-11-02T05:55:25.195Z,97143.57
2023-11-02T05:57:53.938Z,97148.17
2023-11-02T06:00:22.440Z,97146.27
2023-11-02T06:02:50.128Z,97147.84
2023-11-02T06:05:17.566Z,97141.34
2023-11-02T06:07:46.863Z,97142.14
2023-11-02T06:10:14.711Z,97135.66
2023-11-02T06:12:42.507Z,97137.48
2023-11-02T06:15:11.914Z,97119.13
2023-11-02T06:17:39.699Z,97120.94
2023-11-02T06:20:09.368Z,97129.02
2023-11-02T06:22:36.896Z,97114.76
2023-11-02T06:25:05.913Z,97123.95
2023-11-02T06:27:33.911Z,97115.55
2023-11-02T06:30:01.607Z,97104.30
2023-11-02T06:32:29.633Z,97094.00
2023-11-02T06:34:57.450Z,97091.65
2023-11-02T06:37:25.123Z,97087.69
2023-11-02T06:39:52.863Z,97082.96
2023-11-02T06:42:20.502Z,97077.58
2023-11-02T06:44:48.252Z,97074.04
2023-11-02T06:47:16.258Z,97076.73
2023-11-02T06:49:44.969Z,97065.86
2023-11-02T06:52:12.707Z,97061.28
2023-11-02T06:54:42.293Z,97062.39
2023-11-02T06:57:10.053Z,97055.38
2023-11-02T06:59:38.078Z,97063.33
2023-11-02T07:02:06.795Z,97056.67
2023-11-02T07:04:34.540Z,97057.16
2023-11-02T07:07:02.526Z,97062.38
2023-11-02T07:09:30.695Z,97070.63
2023-11-02T07:11:58.478Z,97073.48
2023-11-02T07:14:25.930Z,97070.69
2023-11-02T07:16:53.501Z,97068.47
2023-11-02T07:19:21.302Z,97072.19
2023-11-02T07:21:48.652Z,97069.49
2023-11-02T07:24:16.329Z,97066.62
2023-11-02T07:26:43.872Z,97070.92
2023-11-02T07:29:11.575Z,97067.56
2023-11-02T07:31:41.190Z,97065.02
2023-11-02T07:34:09.103Z,97062.47
2023-11-02T07:36:36.812Z,97062.06
2023-11-02T07:39:04.983Z,97061.66
2023-11-02T07:41:33.290Z,97056.06
2023-11-02T07:44:01.125Z,97060.27
2023-11-02T07:46:29.075Z,97053.67
2023-11-02T07:48:56.676Z,97039.75
2023-11-02T07:51:24.434Z,97048.72
2023-11-02T07:53:52.187Z,97042.00
2023-11-02T07:56:19.942Z,97053.02
2023-11-02T07:58:47.494Z,97051.92
2023-11-02T08:01:20.001Z,97042.11
2023-11-02T08:03:48.102Z,97037.02
2023-11-02T08:06:16.160Z,97033.05
2023-11-02T08:08:44.917Z,97029.06
2023-11-02T08:11:12.553Z,97029.13
2023-11-02T08:13:40.431Z,97022.55
2023-11-02T08:16:09.479Z,97025.62
2023-11-02T08:18:37.322Z,97031.52
2023-11-02T08:21:09.011Z,97034.86
2023-11-02T08:23:36.954Z,97037.45
2023-11-02T08:26:05.285Z,97042.20
2023-11-02T08:28:34.605Z,97041.55
2023-11-02T08:31:02.586Z,97034.78
2023-11-02T08:33:30.376Z,97035.70
2023-11-02T08:35:58.285Z,97032.68
2023-11-02T08:38:26.081Z,97031.11
2023-11-02T08:40:53.791Z,97034.60
2023-11-02T08:43:21.765Z,97037.22
2023-11-02T08:45:49.387Z,97034.38
2023-11-02T08:48:17.030Z,97039.36
2023-11-02T08:50:44.720Z,97035.52
2023-11-02T08:53:12.268Z,97034.41
2023-11-02T08:55:39.919Z,97039.48
2023-11-02T08:58:07.282Z,97036.91
2023-11-02T09:00:35.775Z,97033.06
2023-11-02T09:03:03.348Z,97038.03
2023-11-02T09:05:31.403Z,97040.08
2023-11-02T09:07:59.196Z,97030.38
2023-11-02T09:10:26.780Z,97026.78
2023-11-02T09:12:55.318Z,97017.19
2023-11-02T09:15:23.058Z,97012.13
2023-11-02T09:17:51.216Z,97011.91
2023-11-02T09:20:18.755Z,97005.14
2023-11-02T09:22:46.313Z,96997.45
2023-11-02T09:25:14.132Z,96991.55
2023-11-02T09:27:41.733Z,96991.09
2023-11-02T09:30:10.785Z,96979.64
2023-11-02T09:32:38.548Z,96977.47
2023-11-02T09:35:07.070Z,96977.14
2023-11-02T09:37:37.397Z,96963.52
2023-11-02T09:40:07.349Z,96966.73
2023-11-02T09:42:35.491Z,96962.38
2023-11-02T09:45:04.502Z,96958.30
2023-11-02T09:47:33.218Z,96952.60
2023-11-02T09:50:00.799Z,96950.77
2023-11-02T09:52:28.860Z,96947.00
2023-11-02T09:54:56.898Z,96940.09
2023-11-02T09:57:25.136Z,96936.45
2023-11-02T09:59:52.845Z,96934.19
2023-11-02T10:02:23.049Z,96927.82
2023-11-02T10:04:50.929Z,96924.41
2023-11-02T10:07:19.125Z,96923.72
2023-11-02T10:09:49.893Z,96915.99
2023-11-02T10:12:18.981Z,96915.42
2023-11-02T10:14:47.364Z,96915.78
2023-11-02T10:17:16.625Z,96914.21
2023-11-02T10:19:44.436Z,96901.99
2023-11-02T10:22:12.243Z,96898.55
2023-11-02T10:24:39.950Z,96892.88
2023-11-02T10:27:07.816Z,96887.73
2023-11-02T10:29:36.492Z,96888.46
2023-11-02T10:32:05.784Z,96880.06
2023-11-02T10:34:37.374Z,96877.06
2023-11-02T10:37:05.416Z,96867.06
2023-11-02T10:39:33.474Z,96863.98
2023-11-02T10:42:04.837Z,96851.27
2023-11-02T10:44:36.891Z,96846.98
2023-11-02T10:47:06.306Z,96846.56
2023-11-02T10:49:39.015Z,96844.69
2023-11-02T10:52:09.124Z,96834.52
2023-11-02T10:54:45.312Z,96835.11
2023-11-02T10:57:18.767Z,96838.19
2023-11-02T10:59:48.068Z,96827.02
2023-11-02T11:02:17.955Z,96828.08
2023-11-02T11:04:50.170Z,96823.48
2023-11-02T11:07:19.377Z,96817.23
2023-11-02T11:09:50.828Z,96819.52
2023-11-02T11:12:20.064Z,96812.92
2023-11-02T11:14:48.626Z,96809.82
2023-11-02T11:17:16.648Z,96804.48
2023-11-02T11:19:44.599Z,96801.47
2023-11-02T11:22:16.671Z,96796.44
2023-11-02T11:24:54.528Z,96793.57
2023-11-02T11:27:33.927Z,96783.46
2023-11-02T11:30:04.554Z,96781.78
2023-11-02T11:32:36.782Z,96780.42
2023-11-02T11:35:10.487Z,96782.36
2023-11-02T11:37:51.378Z,96779.06
2023-11-02T11:40:29.584Z,96779.91
2023-11-02T11:43:08.401Z,96783.13
2023-11-02T11:45:50.383Z,96781.24
2023-11-02T11:48:39.741Z,96782.48
2023-11-02T11:51:41.836Z,96779.53
2023-11-02T11:54:16.003Z,96780.80
2023-11-02T11:56:45.875Z,96775.03
2023-11-02T11:59:13.579Z,96768.47
2023-11-02T12:01:41.461Z,96766.59
2023-11-02T12:04:10.016Z,96767.42
2023-11-02T12:06:44.470Z,96758.52
2023-11-02T12:09:13.757Z,96752.69
2023-11-02T12:11:45.140Z,96749.62
2023-11-02T12:14:19.701Z,96745.19
2023-11-02T12:16:52.150Z,96746.17
2023-11-02T12:19:20.259Z,96745.01
2023-11-02T12:21:57.472Z,96744.22
2023-11-02T12:24:25.845Z,96747.33
2023-11-02T12:27:13.156Z,96747.13
2023-11-02T12:30:00.370Z,96749.86
2023-11-02T12:32:28.426Z,96743.64
2023-11-02T12:34:56.379Z,96741.98
2023-11-02T12:37:24.476Z,96741.64
2023-11-02T12:40:00.959Z,96743.99
2023-11-02T12:42:28.754Z,96741.11
2023-11-02T12:44:58.338Z,96743.26
2023-11-02T12:47:41.367Z,96739.75
2023-11-02T12:50:31.060Z,96738.19
2023-11-02T12:52:58.887Z,96740.53
2023-11-02T12:55:27.869Z,96737.02
2023-11-02T12:57:55.709Z,96741.31
2023-11-02T13:00:25.086Z,96732.93
2023-11-02T13:02:52.899Z,96727.68
2023-11-02T13:05:26.976Z,96725.15
2023-11-02T13:07:55.006Z,96718.91
2023-11-02T13:10:24.513Z,96709.95
2023-11-02T13:12:52.171Z,96717.94
2023-11-02T13:15:20.056Z,96713.64
2023-11-02T13:17:47.893Z,96709.13
2023-11-02T13:20:18.359Z,96708.50
2023-11-02T13:22:48.487Z,96706.54
2023-11-02T13:25:17.870Z,96711.56
2023-11-02T13:27:46.471Z,96711.56
2023-11-02T13:30:18.207Z,96715.30
2023-11-02T13:32:46.323Z,96714.18
2023-11-02T13:35:14.119Z,96711.31
2023-11-02T13:37:42.390Z,96704.01
2023-11-02T13:40:11.030Z,96708.14
2023-11-02T13:42:38.758Z,96709.50
2023-11-02T13:45:07.391Z,96705.57
2023-11-02T13:47:39.659Z,96708.48
2023-11-02T13:50:10.404Z,96705.33
2023-11-02T13:52:38.175Z,96709.89
2023-11-02T13:55:07.414Z,96710.95
2023-11-02T13:57:35.166Z,96707.74
2023-11-02T14:00:04.603Z,96703.92
2023-11-02T14:02:34.379Z,96701.28
2023-11-02T14:05:03.171Z,96694.26
2023-11-02T14:07:31.382Z,96690.71
2023-11-02T14:10:00.085Z,96695.16
2023-11-02T14:12:28.356Z,96685.09
2023-11-02T14:14:56.293Z,96685.40
2023-11-02T14:17:25.484Z,96681.41
2023-11-02T14:19:54.132Z,96678.55
2023-11-02T14:22:22.773Z,96674.13
2023-11-02T14:24:52.423Z,96678.36
2023-11-02T14:27:23.215Z,96672.48
2023-11-02T14:29:52.793Z,96671.34
2023-11-02T14:32:20.441Z,96665.13
2023-11-02T14:34:48.189Z,96663.99
2023-11-02T14:37:15.778Z,96662.39
2023-11-02T14:39:44.862Z,96660.16
2023-11-02T14:42:13.429Z,96661.17
2023-11-02T14:44:41.191Z,96667.83
2023-11-02T14:47:11.777Z,96665.73
2023-11-02T14:49:39.608Z,96668.50
2023-11-02T14:52:07.399Z,96662.30
2023-11-02T14:54:44.010Z,96658.62
2023-11-02T14:57:09.006Z,96660.56
2023-11-02T14:59:40.074Z,96654.89
2023-11-02T15:02:08.369Z,96654.47
2023-11-02T15:04:37.075Z,96659.66
2023-11-02T15:07:04.984Z,96666.57
2023-11-02T15:09:34.188Z,96668.58
2023-11-02T15:12:01.920Z,96662.52
2023-11-02T15:14:30.045Z,96657.82
2023-11-02T15:16:57.818Z,96659.53
2023-11-02T15:19:26.187Z,96662.84
2023-11-02T15:21:53.861Z,96665.46
2023-11-02T15:24:21.654Z,96658.60
2023-11-02T15:26:50.375Z,96661.44
2023-11-02T15:29:18.281Z,96659.06
2023-11-02T15:31:45.891Z,96660.20
2023-11-02T15:34:14.317Z,96662.45
2023-11-02T15:36:42.333Z,96659.56
2023-11-02T15:39:10.715Z,96663.95
2023-11-02T15:41:38.132Z,96667.95
2023-11-02T15:44:06.600Z,96661.84
2023-11-02T15:46:43.264Z,96663.70
2023-11-02T15:49:11.496Z,96658.61
2023-11-02T15:51:45.024Z,96658.33
2023-11-02T15:54:14.032Z,96659.16
2023-11-02T15:56:41.490Z,96658.03
2023-11-02T15:59:09.029Z,96648.60
2023-11-02T16:01:37.659Z,96659.34
2023-11-02T16:04:05.863Z,96656.20
2023-11-02T16:06:34.292Z,96658.03
2023-11-02T16:09:01.753Z,96649.56
2023-11-02T16:11:29.466Z,96651.17
2023-11-02T16:13:58.942Z,96652.79
2023-11-02T16:16:26.466Z,96655.08
2023-11-02T16:18:54.108Z,96658.73
2023-11-02T16:21:30.521Z,96654.67
2023-11-02T16:23:58.376Z,96665.19
2023-11-02T16:26:26.347Z,96665.08
2023-11-02T16:28:55.166Z,96671.84
2023-11-02T16:31:25.168Z,96673.20
2023-11-02T16:33:55.856Z,96676.37
2023-11-02T16:36:44.295Z,96675.23
2023-11-02T16:39:13.994Z,96677.47
2023-11-02T16:41:46.473Z,96670.59
2023-11-02T16:44:15.195Z,96680.81
2023-11-02T16:46:50.894Z,96677.42
2023-11-02T16:49:20.907Z,96681.38
2023-11-02T16:51:50.551Z,96678.77
2023-11-02T16:54:20.301Z,96675.35
2023-11-02T16:56:48.016Z,96661.39
2023-11-02T16:59:17.038Z,96659.36
2023-11-02T17:01:47.960Z,96656.22
2023-11-02T17:04:15.596Z,96653.73
2023-11-02T17:06:43.573Z,96647.44
2023-11-02T17:09:14.271Z,96658.52
2023-11-02T17:11:41.806Z,96657.20
2023-11-02T17:14:11.225Z,96659.91
2023-11-02T17:16:42.004Z,96660.16
2023-11-02T17:19:10.507Z,96660.16
2023-11-02T17:21:39.651Z,96655.67
2023-11-02T17:24:08.266Z,96655.91
2023-11-02T17:26:36.194Z,96647.09
2023-11-02T17:29:04.148Z,96646.09
2023-11-02T17:31:31.929Z,96639.44
2023-11-02T17:33:59.854Z,96636.97
2023-11-02T17:36:28.604Z,96638.78
2023-11-02T17:39:01.792Z,96639.23
2023-11-02T17:41:31.431Z,96642.19
2023-11-02T17:43:59.260Z,96639.47
2023-11-02T17:46:26.931Z,96638.58
2023-11-02T17:48:54.669Z,96627.67
2023-11-02T17:51:24.235Z,96623.61
2023-11-02T17:53:53.015Z,96624.42
2023-11-02T17:56:20.417Z,96632.98
2023-11-02T17:58:48.014Z,96627.67
2023-11-02T18:01:16.453Z,96626.42
2023-11-02T18:03:44.656Z,96625.77
2023-11-02T18:06:12.389Z,96630.59
2023-11-02T18:08:40.240Z,96630.84
2023-11-02T18:11:07.831Z,96631.38
2023-11-02T18:13:38.311Z,96631.30
2023-11-02T18:16:06.004Z,96633.08
2023-11-02T18:18:34.154Z,96630.48
2023-11-02T18:21:06.077Z,96626.99
2023-11-02T18:23:35.666Z,96634.31
2023-11-02T18:26:07.017Z,96634.78
2023-11-02T18:28:34.757Z,96636.35
2023-11-02T18:31:07.661Z,96635.22
2023-11-02T18:33:35.622Z,96645.36
2023-11-02T18:36:10.918Z,96637.16
2023-11-02T18:38:42.808Z,96640.86
2023-11-02T18:41:13.211Z,96639.05
2023-11-02T18:43:43.449Z,96639.73
2023-11-02T18:46:20.803Z,96635.23
2023-11-02T18:48:49.598Z,96632.86
2023-11-02T18:51:22.326Z,96634.33
2023-11-02T18:53:49.975Z,96627.67
2023-11-02T18:56:20.504Z,96626.86
2023-11-02T18:58:48.137Z,96626.43
2023-11-02T19:01:22.227Z,96627.78
2023-11-02T19:03:56.287Z,96629.80
2023-11-02T19:06:33.397Z,96630.83
2023-11-02T19:09:07.324Z,96626.79
2023-11-02T19:11:42.503Z,96626.56
2023-11-02T19:14:10.205Z,96615.63
2023-11-02T19:16:39.900Z,96616.30
2023-11-02T19:19:14.326Z,96608.86
2023-11-02T19:21:46.583Z,96600.98
2023-11-02T19:24:16.084Z,96599.18
2023-11-02T19:26:49.795Z,96607.73
2023-11-02T19:29:22.671Z,96602.09
2023-11-02T19:31:53.061Z,96596.70
2023-11-02T19:34:24.914Z,96602.33
2023-11-02T19:36:54.908Z,96596.47
2023-11-02T19:39:24.756Z,96594.09
2023-11-02T19:41:53.405Z,96601.63
2023-11-02T19:44:27.658Z,96598.68
2023-11-02T19:46:58.907Z,96592.16
2023-11-02T19:49:31.705Z,96583.48
2023-11-02T19:51:59.481Z,96586.63
2023-11-02T19:54:27.095Z,96584.69
2023-11-02T19:56:56.475Z,96586.47
2023-11-02T19:59:27.064Z,96586.91
2023-11-02T20:01:54.911Z,96583.52
2023-11-02T20:04:23.192Z,96588.48
2023-11-02T20:06:51.281Z,96598.36
2023-11-02T20:09:28.463Z,96586.78
2023-11-02T20:11:55.973Z,96584.65
2023-11-02T20:14:26.676Z,96565.32
2023-11-02T20:16:54.313Z,96569.80
2023-11-02T20:19:25.375Z,96567.58
2023-11-02T20:21:54.082Z,96558.58
2023-11-02T20:24:21.734Z,96556.47
2023-11-02T20:26:50.617Z,96560.17
2023-11-02T20:29:18.388Z,96550.28
2023-11-02T20:31:46.064Z,96553.67
2023-11-02T20:34:15.617Z,96555.48
2023-11-02T20:36:43.482Z,96555.58
2023-11-02T20:39:11.879Z,96558.95
2023-11-02T20:41:43.132Z,96553.89
2023-11-02T20:44:10.851Z,96558.04
2023-11-02T20:46:41.476Z,96557.91
2023-11-02T20:49:09.428Z,96546.90
2023-11-02T20:51:37.140Z,96538.67
2023-11-02T20:54:04.934Z,96541.03
2023-11-02T20:56:34.252Z,96535.41
2023-11-02T20:59:01.852Z,96543.16
2023-11-02T21:01:29.396Z,96547.22
2023-11-02T21:04:00.641Z,96542.13
2023-11-02T21:06:31.532Z,96541.47
2023-11-02T21:08:59.345Z,96536.27
2023-11-02T21:11:27.075Z,96529.42
2023-11-02T21:13:54.973Z,96537.39
2023-11-02T21:16:23.028Z,96533.66
2023-11-02T21:18:51.804Z,96528.61
2023-11-02T21:21:20.225Z,96531.08
2023-11-02T21:23:49.501Z,96526.34
2023-11-02T21:26:17.249Z,96531.02
2023-11-02T21:28:45.077Z,96525.84
2023-11-02T21:31:14.724Z,96523.11
2023-11-02T21:33:42.462Z,96532.98
2023-11-02T21:36:10.293Z,96530.27
2023-11-02T21:38:39.709Z,96530.36
2023-11-02T21:41:10.083Z,96538.32
2023-11-02T21:43:38.476Z,96534.39
2023-11-02T21:46:10.039Z,96532.91
2023-11-02T21:48:37.749Z,96531.09
2023-11-02T21:51:05.535Z,96530.98
2023-11-02T21:53:33.141Z,96529.52
2023-11-02T21:56:00.919Z,96532.44
2023-11-02T21:58:28.549Z,96528.09
2023-11-02T22:00:56.204Z,96520.80
2023-11-02T22:03:23.690Z,96519.27
2023-11-02T22:05:51.243Z,96509.61
2023-11-02T22:08:18.715Z,96508.05
2023-11-02T22:10:47.265Z,96509.87
2023-11-02T22:13:14.721Z,96504.27
2023-11-02T22:15:42.372Z,96504.42
2023-11-02T22:18:10.399Z,96499.84
2023-11-02T22:20:38.215Z,96494.88
2023-11-02T22:23:05.906Z,96488.95
2023-11-02T22:25:33.562Z,96489.27
2023-11-02T22:28:01.315Z,96482.65
2023-11-02T22:30:30.614Z,96474.44
2023-11-02T22:32:58.357Z,96478.58
2023-11-02T22:35:26.027Z,96485.03
2023-11-02T22:37:54.088Z,96479.42
2023-11-02T22:40:22.271Z,96474.34
2023-11-02T22:42:50.221Z,96475.66
2023-11-02T22:45:18.011Z,96472.70
2023-11-02T22:47:45.790Z,96475.61
2023-11-02T22:50:13.429Z,96471.78
2023-11-02T22:52:41.005Z,96471.98
2023-11-02T22:55:09.252Z,96465.68
2023-11-02T22:57:37.205Z,96456.43
2023-11-02T23:00:08.941Z,96452.38
2023-11-02T23:02:36.532Z,96444.72
2023-11-02T23:05:06.451Z,96446.72
2023-11-02T23:07:34.145Z,96454.45
2023-11-02T23:10:01.951Z,96452.41
2023-11-02T23:12:32.390Z,96450.92
2023-11-02T23:15:01.608Z,96448.91
2023-11-02T23:17:30.655Z,96438.31
2023-11-02T23:19:58.282Z,96434.70
2023-11-02T23:22:25.815Z,96441.20
2023-11-02T23:24:53.435Z,96443.45
2023-11-02T23:27:21.941Z,96445.03
2023-11-02T23:29:49.485Z,96443.59
2023-11-02T23:32:17.030Z,96449.77
2023-11-02T23:34:45.105Z,96455.51
2023-11-02T23:37:12.813Z,96448.01
2023-11-02T23:39:40.683Z,96441.31
2023-11-02T23:42:08.404Z,96439.67
2023-11-02T23:44:36.007Z,96439.34
2023-11-02T23:47:03.894Z,96433.09
2023-11-02T23:49:31.722Z,96433.91
2023-11-02T23:51:59.515Z,96424.61
2023-11-02T23:54:27.343Z,96419.21
2023-11-02T23:56:54.911Z,96414.05
2023-11-02T23:59:23.465Z,96416.95
